Jennifer — WDF6480 — position and weather

sailwx.info

Track history (hours):
 
Tides and Currents Weather Stations Pressure Air Temp Water Temp Dewpoint Dewpoint Depression Visibility Wind Speed Wind Dir Waves Ship Positions

Jennifer

Owner: John W. Stone Oil Distributor, L.L.C., Gretna, LA. More information available from US FCC via Universal Licensing System and Coast Guard Vessel Documentation Center.

Last reported at 2014-Sep-17 03:08 UTC. Time now 2014-Oct-01 10:23 UTC.
Position N 29°32' W 090°52'.
Warning: this ship's position is 14 days out of date.

Length 18 m; draft 3 m.

Type: Tug. MMSI: 367474690.

Date/timePositionNaut miles runAvg speedWind from/ knotsBaromVisibWave heightAir tempDewpointWater temp
2014-Sep-17 03:08N 29°32' W 090°52'4 7.3
2014-Sep-17 02:33N 29°34' W 090°57'6 6.4
2014-Sep-17 01:33N 29°37' W 091°03'7 6.6
2014-Sep-17 00:33N 29°41' W 091°09'4 3.5
2014-Sep-16 23:33N 29°41' W 091°13'6 6.3
2014-Sep-16 22:33N 29°38' W 091°20'  
2014-Sep-14 15:24N 29°45' W 091°35'5 6.2
2014-Sep-14 14:33N 29°42' W 091°30'6 6.4
2014-Sep-14 13:33N 29°39' W 091°24'6 5.9
2014-Sep-14 12:33N 29°39' W 091°17'5 5.3
2014-Sep-14 11:34N 29°41' W 091°11'4 4.1
2014-Sep-14 10:33N 29°39' W 091°07'6 5.3
2014-Sep-14 09:26N 29°37' W 091°01'  
Track history (hours):
 
Tides and Currents Weather Stations Pressure Air Temp Water Temp Dewpoint Dewpoint Depression Visibility Wind Speed Wind Dir Waves Ship Positions

Jennifer

Owner: John W. Stone Oil Distributor, L.L.C., Gretna, LA. More information available from US FCC via Universal Licensing System and Coast Guard Vessel Documentation Center.

Last reported at 2014-Sep-17 03:08 UTC. Time now 2014-Oct-01 10:23 UTC.
Position N 29°32' W 090°52'.
Warning: this ship's position is 14 days out of date.

Length 18 m; draft 3 m.

Type: Tug. MMSI: 367474690.

Date/timePositionNaut miles runAvg speedWind from/ knotsBaromVisibWave heightAir tempDewpointWater temp
2014-Sep-17 03:08N 29°32' W 090°52'4 7.3
2014-Sep-17 02:33N 29°34' W 090°57'6 6.4
2014-Sep-17 01:33N 29°37' W 091°03'7 6.6
2014-Sep-17 00:33N 29°41' W 091°09'4 3.5
2014-Sep-16 23:33N 29°41' W 091°13'6 6.3
2014-Sep-16 22:33N 29°38' W 091°20'  
2014-Sep-14 15:24N 29°45' W 091°35'5 6.2
2014-Sep-14 14:33N 29°42' W 091°30'6 6.4
2014-Sep-14 13:33N 29°39' W 091°24'6 5.9
2014-Sep-14 12:33N 29°39' W 091°17'5 5.3
2014-Sep-14 11:34N 29°41' W 091°11'4 4.1
2014-Sep-14 10:33N 29°39' W 091°07'6 5.3
2014-Sep-14 09:26N 29°37' W 091°01'  

Dump ship's entire track history